Time;durP1;ratioP1;P1;durP2;ratioP2;P2;SDS_P1;SDS_P2;PMS_P1;PMS_P2;Temp;Humidity;BMP_temperature;BMP_pressure;BME280_temperature;BME280_humidity;BME280_pressure;Samples;Min_cycle;Max_cycle;Signal;HPM_P1;HPM_P2
2022/03/19 00:00:04;;;;;;;14.18;8.25;;;;;;;10.38;53.75;104297.81;5023471;28;20493;-63
2022/03/19 00:02:30;;;;;;;10.88;7.90;;;;;;;10.31;53.50;104294.81;5030229;28;20048;-63
2022/03/19 00:04:55;;;;;;;12.68;8.05;;;;;;;10.34;53.55;104296.41;5029681;28;20041;-62
2022/03/19 00:07:20;;;;;;;15.48;8.60;;;;;;;10.35;53.60;104297.28;5038404;28;20033;-63
2022/03/19 00:09:45;;;;;;;11.88;8.77;;;;;;;10.35;53.50;104287.03;5033934;28;20060;-63
2022/03/19 00:12:14;;;;;;;16.13;8.70;;;;;;;10.34;53.63;104293.63;5029896;28;20541;-63
2022/03/19 00:14:43;;;;;;;15.43;7.90;;;;;;;10.26;53.66;104288.03;5034156;28;20163;-63
2022/03/19 00:17:10;;;;;;;10.25;8.15;;;;;;;10.26;53.46;104301.94;5025366;28;20067;-63
2022/03/19 00:19:37;;;;;;;11.70;8.35;;;;;;;10.22;53.79;104290.25;5027249;28;20022;-63
2022/03/19 00:22:03;;;;;;;13.55;8.07;;;;;;;10.25;53.69;104297.38;5039188;28;20031;-63
2022/03/19 00:24:29;;;;;;;15.82;9.00;;;;;;;10.22;53.95;104286.59;5036880;28;20373;-63
2022/03/19 00:26:57;;;;;;;16.27;9.07;;;;;;;10.22;53.96;104287.47;5040151;28;20032;-63
2022/03/19 00:29:23;;;;;;;16.35;8.93;;;;;;;10.17;53.99;104297.31;5046042;28;20039;-63
2022/03/19 00:31:48;;;;;;;16.63;8.73;;;;;;;10.16;53.96;104288.13;5029173;28;20385;-63
2022/03/19 00:34:14;;;;;;;11.80;8.73;;;;;;;10.14;54.38;104289.31;5031005;28;20025;-62
2022/03/19 00:36:40;;;;;;;11.25;7.53;;;;;;;10.19;53.95;104286.94;5041199;28;20082;-63
2022/03/19 00:39:06;;;;;;;16.30;8.98;;;;;;;10.19;54.02;104282.25;5029504;28;20029;-62
2022/03/19 00:41:34;;;;;;;18.50;8.63;;;;;;;10.19;54.13;104275.81;5030424;28;20473;-62
2022/03/19 00:43:59;;;;;;;10.75;8.57;;;;;;;10.16;54.24;104278.94;5031610;28;20056;-62
2022/03/19 00:46:28;;;;;;;15.50;9.07;;;;;;;10.12;54.16;104278.38;5029201;28;20106;-62
2022/03/19 00:48:53;;;;;;;13.10;8.70;;;;;;;10.12;54.41;104283.06;5024591;28;20097;-62
2022/03/19 00:51:19;;;;;;;13.52;9.35;;;;;;;10.10;54.09;104277.69;5033603;28;20501;-62
2022/03/19 00:53:44;;;;;;;13.93;9.27;;;;;;;10.02;54.13;104281.31;5028480;28;20655;-62
2022/03/19 00:56:10;;;;;;;15.32;9.35;;;;;;;10.02;54.54;104278.53;5030616;28;20393;-63
2022/03/19 00:58:35;;;;;;;14.18;9.18;;;;;;;10.00;54.53;104272.25;5028655;28;20033;-62
2022/03/19 01:01:00;;;;;;;14.93;8.70;;;;;;;10.00;54.46;104275.03;5023685;28;20045;-61
2022/03/19 01:03:28;;;;;;;12.82;9.02;;;;;;;9.98;54.67;104271.56;5026894;28;20056;-62
2022/03/19 01:05:54;;;;;;;14.32;9.73;;;;;;;9.93;54.71;104271.19;5015448;28;20377;-62
2022/03/19 01:08:19;;;;;;;14.77;9.48;;;;;;;9.91;54.74;104266.84;5026683;28;20073;-62
2022/03/19 01:10:44;;;;;;;13.75;9.00;;;;;;;9.84;55.12;104273.03;5020494;28;20037;-62
2022/03/19 01:13:10;;;;;;;14.07;9.15;;;;;;;9.80;55.07;104274.41;5023462;28;20029;-61
2022/03/19 01:15:35;;;;;;;16.73;10.20;;;;;;;9.84;54.92;104272.19;5023227;28;20037;-64
2022/03/19 01:18:01;;;;;;;12.77;9.88;;;;;;;9.83;55.17;104270.44;5026857;28;20968;-63
2022/03/19 01:20:27;;;;;;;13.30;9.90;;;;;;;9.80;54.97;104271.63;5028086;28;20418;-62
2022/03/19 01:22:52;;;;;;;15.63;10.40;;;;;;;9.76;55.09;104270.22;5025395;28;20031;-62
2022/03/19 01:25:19;;;;;;;14.27;10.70;;;;;;;9.78;55.08;104262.59;5028869;28;20750;-62
2022/03/19 01:27:46;;;;;;;16.10;10.00;;;;;;;9.77;55.47;104262.78;5026047;28;20124;-62
2022/03/19 01:30:13;;;;;;;16.85;10.85;;;;;;;9.74;55.43;104263.09;5025318;28;20039;-62
2022/03/19 01:32:39;;;;;;;16.05;10.20;;;;;;;9.74;55.32;104257.53;5023154;28;20037;-62
2022/03/19 01:35:05;;;;;;;17.48;10.85;;;;;;;9.77;55.11;104260.00;5019575;28;20377;-62
2022/03/19 01:37:30;;;;;;;14.68;10.05;;;;;;;9.75;55.46;104256.53;5028053;28;20033;-62
2022/03/19 01:39:59;;;;;;;16.42;10.38;;;;;;;9.75;55.42;104262.09;5036197;28;20057;-63
2022/03/19 01:42:27;;;;;;;13.77;11.00;;;;;;;9.72;55.41;104254.94;5028435;28;20045;-63
2022/03/19 01:44:54;;;;;;;15.00;10.75;;;;;;;9.70;55.78;104258.91;5024875;28;20082;-63
2022/03/19 01:47:20;;;;;;;15.90;11.48;;;;;;;9.66;55.21;104257.50;5037527;28;20025;-63
2022/03/19 01:49:45;;;;;;;15.85;11.05;;;;;;;9.67;55.53;104254.56;5018018;28;20029;-63
2022/03/19 01:52:11;;;;;;;16.00;11.88;;;;;;;9.62;55.50;104247.75;5022441;28;20032;-63
2022/03/19 01:54:37;;;;;;;17.73;11.70;;;;;;;9.62;55.46;104250.53;5029786;28;20037;-63
2022/03/19 01:57:03;;;;;;;13.95;11.00;;;;;;;9.61;55.63;104248.81;5029797;28;20121;-62
2022/03/19 01:59:34;;;;;;;16.92;11.82;;;;;;;9.57;56.00;104251.03;5029088;28;20064;-63
2022/03/19 02:02:02;;;;;;;17.85;12.27;;;;;;;9.56;55.80;104246.53;5029921;28;20051;-63
2022/03/19 02:04:28;;;;;;;19.83;12.75;;;;;;;9.52;56.05;104251.53;5029333;28;20033;-63
2022/03/19 02:06:54;;;;;;;17.58;13.43;;;;;;;9.53;56.44;104241.31;5027638;28;20048;-63
2022/03/19 02:09:20;;;;;;;16.55;12.95;;;;;;;9.51;56.59;104246.13;5025597;28;20045;-63
2022/03/19 02:11:45;;;;;;;20.83;13.77;;;;;;;9.50;56.15;104236.94;5030110;28;20025;-63
2022/03/19 02:14:10;;;;;;;19.83;13.73;;;;;;;9.52;56.63;104239.56;5028327;28;20437;-63
2022/03/19 02:16:40;;;;;;;21.50;14.07;;;;;;;9.49;56.19;104239.88;5029711;28;20034;-63
2022/03/19 02:19:05;;;;;;;18.27;14.27;;;;;;;9.45;56.31;104232.94;5031237;28;20037;-63
2022/03/19 02:21:41;;;;;;;19.55;13.65;;;;;;;9.45;56.14;104231.03;5029835;28;20439;-62
2022/03/19 02:26:53;;;;;;;24.15;14.80;;;;;;;9.43;57.00;104216.47;5025865;28;20050;-63
2022/03/19 02:29:22;;;;;;;17.85;13.30;;;;;;;9.43;56.75;104216.47;5031588;28;20070;-62
2022/03/19 02:31:50;;;;;;;21.95;14.63;;;;;;;9.38;57.37;104217.97;5030095;28;20155;-63
2022/03/19 02:34:16;;;;;;;19.15;13.98;;;;;;;9.35;57.04;104210.84;5034387;28;20118;-63
2022/03/19 02:36:42;;;;;;;18.55;14.50;;;;;;;9.31;57.38;104201.13;5026508;28;20029;-62
2022/03/19 02:39:11;;;;;;;20.80;14.43;;;;;;;9.23;57.85;104195.50;5033854;28;20025;-62
2022/03/19 02:41:44;;;;;;;21.02;14.30;;;;;;;9.23;57.90;104198.28;5034524;28;20042;-62
2022/03/19 02:44:11;;;;;;;18.05;14.10;;;;;;;9.22;57.93;104204.88;5032398;28;20560;-62
2022/03/19 02:46:41;;;;;;;22.30;15.30;;;;;;;9.20;58.11;104204.19;5033580;28;20067;-62
2022/03/19 02:49:07;;;;;;;21.00;14.55;;;;;;;9.21;57.47;104200.38;5033177;28;20068;-62
2022/03/19 02:51:34;;;;;;;19.67;14.60;;;;;;;9.19;58.33;104194.09;5026915;28;20121;-62
2022/03/19 02:54:02;;;;;;;23.52;15.25;;;;;;;9.15;58.47;104189.91;5031542;28;20369;-63
2022/03/19 02:56:27;;;;;;;18.13;14.07;;;;;;;9.15;58.39;104190.78;5034732;28;20037;-62
2022/03/19 02:58:52;;;;;;;20.65;14.52;;;;;;;9.12;58.22;104193.91;5044365;28;20119;-62
2022/03/19 03:01:17;;;;;;;19.35;14.25;;;;;;;9.10;58.68;104188.50;5032284;28;20028;-62
2022/03/19 03:03:43;;;;;;;19.60;14.48;;;;;;;9.08;58.77;104200.81;5036355;28;20029;-62
2022/03/19 03:06:08;;;;;;;21.77;14.30;;;;;;;8.97;58.82;104185.28;5033207;28;20029;-62
2022/03/19 03:08:33;;;;;;;21.58;14.13;;;;;;;8.93;59.24;104200.50;5031305;28;20350;-62
2022/03/19 03:10:59;;;;;;;18.77;14.15;;;;;;;8.88;58.85;104183.47;5028085;28;20021;-63
2022/03/19 03:13:24;;;;;;;18.85;13.77;;;;;;;8.89;59.54;104190.78;5033609;28;20448;-62
2022/03/19 03:15:49;;;;;;;23.02;14.77;;;;;;;8.93;59.63;104194.97;5033544;28;20017;-62
2022/03/19 03:18:15;;;;;;;18.55;13.57;;;;;;;8.91;59.75;104197.00;5032576;28;20436;-62
2022/03/19 03:20:40;;;;;;;17.65;14.20;;;;;;;8.82;59.95;104189.66;5034617;28;20523;-63
2022/03/19 03:23:06;;;;;;;17.73;14.32;;;;;;;8.79;59.75;104181.66;5038621;28;20036;-61
2022/03/19 03:25:34;;;;;;;19.48;13.70;;;;;;;8.82;59.23;104198.84;5032219;28;20473;-62
2022/03/19 03:27:59;;;;;;;18.20;13.52;;;;;;;8.85;59.89;104208.75;5033293;28;20029;-62
2022/03/19 03:30:25;;;;;;;17.77;13.65;;;;;;;8.79;60.20;104198.28;5038173;28;20026;-61
2022/03/19 03:32:51;;;;;;;19.77;13.80;;;;;;;8.85;59.74;104198.53;5032518;28;20056;-62
2022/03/19 03:35:25;;;;;;;18.63;14.20;;;;;;;8.81;60.25;104207.31;5032557;28;20048;-62
2022/03/19 03:37:50;;;;;;;20.77;13.80;;;;;;;8.84;60.13;104201.44;5040360;28;20061;-62
2022/03/19 03:40:18;;;;;;;25.77;14.25;;;;;;;8.86;60.13;104193.84;5042216;28;20483;-62
2022/03/19 03:42:43;;;;;;;21.13;13.85;;;;;;;8.77;60.24;104201.22;5027029;28;20539;-62
2022/03/19 03:45:10;;;;;;;19.27;14.05;;;;;;;8.86;59.98;104196.63;5032346;28;20084;-62
2022/03/19 03:47:38;;;;;;;20.08;13.98;;;;;;;8.87;59.64;104194.72;5034231;28;20033;-63
2022/03/19 03:50:04;;;;;;;21.42;13.95;;;;;;;8.82;59.78;104197.97;5028081;28;20041;-62
2022/03/19 03:52:32;;;;;;;17.52;13.13;;;;;;;8.81;60.06;104190.72;5033384;28;20602;-63
2022/03/19 03:54:57;;;;;;;18.92;12.70;;;;;;;8.81;59.72;104196.25;5032652;28;20033;-63
2022/03/19 03:57:23;;;;;;;21.48;13.13;;;;;;;8.81;59.82;104190.72;5028073;28;20045;-62
2022/03/19 03:59:52;;;;;;;19.90;13.07;;;;;;;8.82;60.00;104186.91;5029228;28;20523;-62
2022/03/19 04:02:18;;;;;;;20.75;14.23;;;;;;;8.83;59.77;104194.16;5023782;28;20056;-63
2022/03/19 04:04:43;;;;;;;21.52;14.80;;;;;;;8.82;59.49;104184.13;5029763;28;20029;-62
2022/03/19 04:07:08;;;;;;;17.05;12.68;;;;;;;8.80;59.86;104183.41;5021382;28;20557;-63
2022/03/19 04:09:35;;;;;;;17.92;12.88;;;;;;;8.78;59.83;104183.56;5031389;28;20041;-63
2022/03/19 04:12:03;;;;;;;19.80;13.48;;;;;;;8.80;60.31;104183.41;5032548;28;20029;-63
2022/03/19 04:14:31;;;;;;;19.70;13.20;;;;;;;8.72;59.87;104177.78;5031829;28;20053;-63
2022/03/19 04:16:57;;;;;;;21.10;13.68;;;;;;;8.70;59.75;104177.97;5032807;28;20026;-63
2022/03/19 04:19:22;;;;;;;17.60;13.00;;;;;;;8.70;59.79;104185.41;5030739;28;20033;-63
2022/03/19 04:21:47;;;;;;;25.70;12.23;;;;;;;8.66;60.15;104182.09;5031780;28;20499;-63
2022/03/19 04:24:13;;;;;;;23.30;13.18;;;;;;;8.63;60.30;104181.53;5028132;28;20111;-63
2022/03/19 04:26:38;;;;;;;20.02;12.80;;;;;;;8.64;60.57;104173.06;5028682;28;20025;-63
2022/03/19 04:29:03;;;;;;;16.02;12.82;;;;;;;8.67;60.02;104175.50;5030019;28;20037;-63
2022/03/19 04:31:29;;;;;;;17.40;12.88;;;;;;;8.65;59.96;104176.72;5028357;28;20741;-63
2022/03/19 04:33:54;;;;;;;19.48;13.40;;;;;;;8.65;60.12;104179.50;5033815;28;20029;-64
2022/03/19 04:36:32;;;;;;;19.05;12.82;;;;;;;8.61;60.64;104173.41;5030966;28;20124;-63
2022/03/19 04:38:58;;;;;;;19.08;12.38;;;;;;;8.60;60.25;104171.63;5027880;28;20056;-63
2022/03/19 04:41:24;;;;;;;17.92;12.90;;;;;;;8.59;60.50;104165.22;5029920;28;20025;-63
2022/03/19 04:43:49;;;;;;;20.00;13.23;;;;;;;8.59;60.44;104168.00;5034804;28;20515;-63
2022/03/19 04:46:14;;;;;;;16.95;12.07;;;;;;;8.57;61.04;104170.06;5030145;28;20022;-63
2022/03/19 04:48:42;;;;;;;20.92;12.02;;;;;;;8.54;60.23;104167.63;5032167;28;20029;-62
2022/03/19 04:51:16;;;;;;;22.70;12.65;;;;;;;8.53;60.60;104160.34;5031371;28;20108;-63
2022/03/19 04:53:51;;;;;;;21.60;12.98;;;;;;;8.54;60.13;104158.44;5031659;28;20048;-63
2022/03/19 04:56:26;;;;;;;20.25;13.07;;;;;;;8.52;60.17;104158.56;5033336;28;20022;-62
2022/03/19 04:58:54;;;;;;;19.92;13.50;;;;;;;8.46;60.27;104159.22;5030952;28;20025;-62
2022/03/19 05:01:21;;;;;;;21.27;12.65;;;;;;;8.45;60.59;104160.28;5027007;28;20042;-62
2022/03/19 05:03:49;;;;;;;20.10;12.50;;;;;;;8.44;60.86;104165.94;5031692;28;20021;-62
2022/03/19 05:06:15;;;;;;;20.05;12.75;;;;;;;8.42;60.84;104171.66;5029246;28;20075;-63
2022/03/19 05:08:40;;;;;;;17.80;12.80;;;;;;;8.32;60.83;104168.03;5030592;28;20083;-63
2022/03/19 05:11:15;;;;;;;18.63;11.85;;;;;;;8.28;60.83;104163.84;5029657;28;20022;-62
2022/03/19 05:13:43;;;;;;;21.10;12.70;;;;;;;8.29;61.22;104169.25;5031209;28;20083;-62
2022/03/19 05:16:09;;;;;;;20.67;12.75;;;;;;;8.32;60.80;104162.50;5041722;28;20108;-62
2022/03/19 05:18:35;;;;;;;17.58;12.95;;;;;;;8.30;60.63;104167.34;5021074;28;20024;-62
2022/03/19 05:21:01;;;;;;;21.75;12.68;;;;;;;8.34;61.29;104172.41;5020305;28;20025;-63
2022/03/19 05:23:26;;;;;;;23.48;12.80;;;;;;;8.33;60.50;104178.97;5032813;28;20606;-62
2022/03/19 05:25:52;;;;;;;19.38;12.15;;;;;;;8.39;60.94;104168.31;5030177;28;20787;-62
2022/03/19 05:28:18;;;;;;;18.13;12.15;;;;;;;8.35;60.55;104171.38;5028961;28;20037;-62
2022/03/19 05:30:43;;;;;;;19.65;12.63;;;;;;;8.32;60.80;104170.81;5033591;28;20016;-62
2022/03/19 05:33:13;;;;;;;19.98;12.38;;;;;;;8.29;60.77;104165.56;5029854;28;20037;-62
2022/03/19 05:35:38;;;;;;;23.45;13.25;;;;;;;8.28;61.04;104169.38;5031107;28;20029;-62
2022/03/19 05:38:05;;;;;;;16.88;12.30;;;;;;;8.18;60.66;104180.53;5022733;28;20359;-61
2022/03/19 05:40:30;;;;;;;18.50;13.00;;;;;;;8.16;61.09;104171.50;5025626;28;20082;-62
2022/03/19 05:42:55;;;;;;;22.98;14.00;;;;;;;8.15;61.37;104171.66;5026762;28;20116;-62
2022/03/19 05:45:21;;;;;;;19.55;13.10;;;;;;;8.12;61.19;104176.47;5032927;28;20022;-62
2022/03/19 05:47:49;;;;;;;20.75;13.13;;;;;;;8.14;61.38;104178.25;5031440;28;20037;-62
2022/03/19 05:50:17;;;;;;;18.17;12.43;;;;;;;8.10;61.55;104175.78;5027864;28;20389;-62
2022/03/19 05:52:46;;;;;;;17.85;12.98;;;;;;;8.09;61.53;104168.47;5019859;28;20017;-62
2022/03/19 05:55:13;;;;;;;20.95;13.70;;;;;;;8.05;61.74;104175.34;5032472;28;20025;-62
2022/03/19 05:57:40;;;;;;;20.08;13.85;;;;;;;7.99;61.98;104180.66;5028331;28;20095;-63
2022/03/19 06:00:07;;;;;;;21.45;13.70;;;;;;;7.92;61.94;104174.00;5031767;28;20037;-61
2022/03/19 06:02:38;;;;;;;21.30;13.15;;;;;;;7.97;62.13;104169.72;5034804;28;20179;-62
2022/03/19 06:05:03;;;;;;;21.17;13.30;;;;;;;7.95;62.22;104170.91;5029894;28;20025;-62
2022/03/19 06:07:28;;;;;;;19.90;13.63;;;;;;;7.93;61.91;104176.59;5036658;28;20041;-62
2022/03/19 06:09:54;;;;;;;23.55;13.85;;;;;;;7.95;62.76;104174.56;5033797;28;20142;-61
2022/03/19 06:12:21;;;;;;;20.85;13.32;;;;;;;7.88;62.58;104178.97;5038369;28;20041;-62
2022/03/19 06:14:46;;;;;;;20.63;12.93;;;;;;;7.93;62.59;104184.03;5034007;28;20029;-62
2022/03/19 06:17:12;;;;;;;20.98;13.68;;;;;;;8.01;62.21;104184.13;5035359;28;20534;-61
2022/03/19 06:19:37;;;;;;;20.92;13.95;;;;;;;8.05;61.93;104188.31;5034739;28;20483;-62
2022/03/19 06:22:03;;;;;;;20.33;13.52;;;;;;;8.10;61.91;104186.84;5033146;28;20052;-62
2022/03/19 06:24:28;;;;;;;21.90;14.05;;;;;;;8.12;62.31;104186.69;5040049;28;20420;-63
2022/03/19 06:26:56;;;;;;;18.77;12.77;;;;;;;8.10;61.84;104181.31;5041910;28;20117;-62
2022/03/19 06:29:22;;;;;;;19.92;13.85;;;;;;;8.09;62.33;104182.31;5024719;28;20032;-63
2022/03/19 06:31:47;;;;;;;20.38;13.65;;;;;;;8.14;61.77;104192.06;5029148;28;20120;-64
2022/03/19 06:34:12;;;;;;;21.90;13.85;;;;;;;8.14;62.30;104181.00;5035721;28;20043;-64
2022/03/19 06:39:25;;;;;;;17.77;12.73;;;;;;;8.14;62.66;104187.41;5026959;28;20067;-64
2022/03/19 06:41:50;;;;;;;23.48;14.38;;;;;;;8.10;62.75;104186.84;5035490;28;20396;-64
2022/03/19 06:44:18;;;;;;;22.75;14.18;;;;;;;8.11;62.09;104194.13;5031083;28;20042;-63
2022/03/19 06:46:44;;;;;;;20.08;13.60;;;;;;;8.07;63.23;104191.81;5032714;28;20043;-62
2022/03/19 06:49:09;;;;;;;21.75;13.90;;;;;;;8.04;62.50;104192.13;5033930;28;20357;-63
2022/03/19 06:51:36;;;;;;;23.20;13.82;;;;;;;7.99;63.11;104197.25;5034897;28;20072;-63
2022/03/19 06:54:03;;;;;;;23.85;12.85;;;;;;;7.92;63.64;104188.69;5040992;28;20040;-63
2022/03/19 06:56:28;;;;;;;20.23;13.25;;;;;;;7.96;63.53;104195.66;5027896;28;20041;-63
2022/03/19 06:58:53;;;;;;;23.67;13.75;;;;;;;8.06;63.02;104192.84;5032135;28;20087;-63
2022/03/19 07:01:21;;;;;;;22.45;13.50;;;;;;;8.08;62.83;104194.41;5031367;28;20508;-63
2022/03/19 07:03:47;;;;;;;23.77;13.82;;;;;;;8.16;62.78;104187.25;5043134;28;20025;-62
2022/03/19 07:06:15;;;;;;;21.52;13.30;;;;;;;8.16;62.62;104195.53;5037965;28;20469;-63
2022/03/19 07:08:41;;;;;;;22.63;13.32;;;;;;;8.18;62.46;104186.06;5046731;28;20127;-65
2022/03/19 07:11:06;;;;;;;22.55;13.65;;;;;;;8.17;63.11;104180.66;5033704;28;20117;-64
2022/03/19 07:13:34;;;;;;;20.23;13.30;;;;;;;8.11;63.21;104188.56;5038546;28;20064;-63
2022/03/19 07:16:00;;;;;;;20.10;12.85;;;;;;;8.18;63.33;104191.59;5035664;28;20112;-62
2022/03/19 07:18:25;;;;;;;22.50;13.75;;;;;;;8.01;63.87;104195.19;5035228;28;20112;-62
2022/03/19 07:20:51;;;;;;;26.13;14.25;;;;;;;8.03;64.13;104194.00;5038125;28;20045;-63
2022/03/19 07:23:16;;;;;;;19.65;13.35;;;;;;;8.05;64.03;104193.84;5036342;28;20025;-64
2022/03/19 07:25:43;;;;;;;24.20;13.20;;;;;;;8.07;63.89;104189.91;5035028;28;20017;-64
2022/03/19 07:28:18;;;;;;;24.23;12.50;;;;;;;8.09;64.06;104186.97;5033276;28;20033;-63
2022/03/19 07:30:43;;;;;;;20.70;12.85;;;;;;;8.10;63.88;104188.75;5034812;28;20040;-62
2022/03/19 07:33:09;;;;;;;25.27;13.43;;;;;;;8.09;64.06;104178.69;5038168;28;20033;-62
2022/03/19 07:35:38;;;;;;;23.40;13.75;;;;;;;8.12;64.83;104182.00;5047613;28;20476;-65
2022/03/19 07:38:06;;;;;;;24.10;12.57;;;;;;;8.23;64.57;104185.59;5042052;28;20039;-62
2022/03/19 07:43:17;;;;;;;19.02;12.70;;;;;;;8.29;64.23;104173.88;5001250;28;20076;-61
2022/03/19 07:45:45;;;;;;;21.77;13.18;;;;;;;8.36;63.84;104184.16;5021088;28;20033;-63
2022/03/19 07:48:10;;;;;;;21.38;13.35;;;;;;;8.43;64.18;104175.28;5033194;28;20120;-62
2022/03/19 07:50:37;;;;;;;20.33;12.93;;;;;;;8.51;63.99;104176.22;5023911;28;20155;-63
2022/03/19 07:53:03;;;;;;;19.67;12.80;;;;;;;8.57;64.09;104177.50;5028359;28;20533;-63
2022/03/19 07:55:28;;;;;;;23.73;12.48;;;;;;;8.68;64.05;104176.38;5028374;28;20116;-63
2022/03/19 07:57:53;;;;;;;17.60;12.55;;;;;;;8.81;63.36;104168.53;5032986;28;20027;-64
2022/03/19 08:00:19;;;;;;;20.35;12.48;;;;;;;8.85;62.83;104179.13;4993081;28;1052701;-62
2022/03/19 08:02:45;;;;;;;20.60;12.38;;;;;;;8.99;62.85;104171.28;5025362;28;20045;-63
2022/03/19 08:05:12;;;;;;;20.30;11.98;;;;;;;9.15;62.38;104176.06;5041017;28;20719;-61
2022/03/19 08:07:37;;;;;;;24.00;12.27;;;;;;;9.27;61.34;104171.97;5034079;28;20061;-60
2022/03/19 08:10:08;;;;;;;17.77;11.93;;;;;;;9.42;61.00;104167.56;5028876;28;20071;-61
2022/03/19 08:12:38;;;;;;;18.48;12.35;;;;;;;9.56;61.06;104175.28;5016606;28;20041;-61
2022/03/19 08:15:05;;;;;;;17.27;11.32;;;;;;;9.73;60.54;104172.59;5024298;28;20048;-60
2022/03/19 08:17:30;;;;;;;14.00;10.20;;;;;;;9.81;59.95;104159.63;5023047;28;20442;-63
2022/03/19 08:19:59;;;;;;;16.30;10.38;;;;;;;9.94;59.91;104167.50;5024785;28;20033;-63
2022/03/19 08:22:25;;;;;;;16.73;10.43;;;;;;;10.04;58.21;104172.88;5029573;28;20043;-61
2022/03/19 08:24:52;;;;;;;18.35;10.65;;;;;;;10.12;58.19;104167.34;5026998;28;20065;-62
2022/03/19 08:27:17;;;;;;;23.83;10.70;;;;;;;10.18;57.76;104174.13;5030085;28;20033;-62
2022/03/19 08:29:42;;;;;;;15.98;9.68;;;;;;;10.27;57.26;104173.16;5022911;28;20045;-62
2022/03/19 08:32:08;;;;;;;17.55;9.70;;;;;;;10.35;57.03;104175.94;5026701;28;20029;-62
2022/03/19 08:34:34;;;;;;;15.27;9.48;;;;;;;10.42;56.39;104182.56;5033049;28;20040;-61
2022/03/19 08:36:59;;;;;;;18.25;9.65;;;;;;;10.47;56.06;104177.34;5028080;28;20072;-61
2022/03/19 08:42:08;;;;;;;13.05;8.93;;;;;;;10.67;56.02;104175.13;5017363;28;20045;-61
2022/03/19 08:44:34;;;;;;;15.23;9.90;;;;;;;10.78;55.69;104176.69;5030484;28;20416;-61
2022/03/19 08:47:02;;;;;;;19.73;9.48;;;;;;;10.84;55.71;104175.97;5024948;28;20124;-61
2022/03/19 08:49:27;;;;;;;14.60;9.13;;;;;;;10.97;54.69;104165.22;5027630;28;20085;-60
2022/03/19 08:51:52;;;;;;;19.42;9.52;;;;;;;11.05;55.01;104167.13;5030860;28;20144;-61
2022/03/19 08:54:19;;;;;;;14.35;8.95;;;;;;;11.10;54.44;104164.69;5031863;28;20021;-62
2022/03/19 08:56:49;;;;;;;15.95;8.95;;;;;;;11.17;54.17;104162.06;5024458;28;20061;-62
2022/03/19 08:59:17;;;;;;;18.23;9.77;;;;;;;11.27;54.14;104168.28;5025751;28;20132;-62
2022/03/19 09:01:45;;;;;;;13.80;8.60;;;;;;;11.39;53.24;104160.44;5025085;28;20477;-61
2022/03/19 09:04:13;;;;;;;19.42;9.18;;;;;;;11.41;53.44;104162.03;5026366;28;20097;-61
2022/03/19 09:06:42;;;;;;;15.98;9.77;;;;;;;11.45;53.03;104156.97;5029710;28;20033;-62
2022/03/19 09:09:07;;;;;;;16.05;9.73;;;;;;;11.52;53.49;104150.50;5032868;28;20033;-62
2022/03/19 09:11:35;;;;;;;19.23;9.32;;;;;;;11.60;52.52;104157.09;5035502;28;20021;-61
2022/03/19 09:14:05;;;;;;;13.38;8.75;;;;;;;11.61;53.05;104161.59;5032282;28;20130;-63
2022/03/19 09:16:34;;;;;;;15.50;9.38;;;;;;;11.64;52.40;104147.34;5031918;28;20032;-61
2022/03/19 09:19:02;;;;;;;14.07;8.93;;;;;;;11.65;52.76;104140.72;5031827;28;20087;-60
2022/03/19 09:21:29;;;;;;;16.42;8.40;;;;;;;11.75;52.85;104144.13;5035954;28;20025;-61
2022/03/19 09:23:57;;;;;;;15.60;9.45;;;;;;;11.87;52.04;104145.53;5024440;28;20040;-60
2022/03/19 09:26:23;;;;;;;14.80;8.48;;;;;;;11.85;50.93;104143.97;5026946;28;20029;-59
2022/03/19 09:28:48;;;;;;;20.75;9.10;;;;;;;11.80;51.63;104144.50;5029761;28;20025;-60
2022/03/19 09:31:16;;;;;;;13.30;8.07;;;;;;;11.82;51.07;104136.81;5034929;28;20104;-61
2022/03/19 09:33:42;;;;;;;13.60;7.82;;;;;;;11.91;51.54;104129.34;5031156;28;20795;-61
2022/03/19 09:36:07;;;;;;;18.95;8.20;;;;;;;12.04;51.40;104141.59;5029936;28;20113;-61
2022/03/19 09:38:33;;;;;;;16.30;7.85;;;;;;;12.14;51.05;104138.56;5029674;28;20033;-60
2022/03/19 09:40:59;;;;;;;15.70;7.53;;;;;;;12.09;50.88;104141.06;5028380;28;20037;-59
2022/03/19 09:43:26;;;;;;;14.10;7.38;;;;;;;12.12;50.33;104131.47;5027577;28;20391;-59
2022/03/19 09:45:52;;;;;;;16.63;7.55;;;;;;;12.21;50.68;104130.34;5029520;28;20129;-60
2022/03/19 09:48:19;;;;;;;16.92;7.03;;;;;;;12.29;49.70;104122.81;5027119;28;20037;-60
2022/03/19 09:50:45;;;;;;;13.57;7.43;;;;;;;12.37;50.05;104121.88;5027519;28;20481;-60
2022/03/19 09:53:11;;;;;;;14.45;6.75;;;;;;;12.43;49.43;104121.16;5028478;28;20089;-60
2022/03/19 09:55:40;;;;;;;13.75;6.93;;;;;;;12.42;49.58;104127.78;5018609;28;20017;-61
2022/03/19 09:58:06;;;;;;;14.00;7.63;;;;;;;12.40;48.83;104115.94;5050464;28;20025;-61
2022/03/19 10:00:31;;;;;;;17.77;7.25;;;;;;;12.50;49.19;104113.78;5041473;28;20555;-60
2022/03/19 10:03:02;;;;;;;18.40;6.55;;;;;;;12.53;48.12;104118.97;5029785;28;20022;-61
2022/03/19 10:08:36;;;;;;;12.73;6.10;;;;;;;12.48;46.78;104104.72;5028678;28;20047;-61
2022/03/19 10:11:02;;;;;;;12.60;6.22;;;;;;;12.52;46.23;104100.53;5027003;28;20147;-60
2022/03/19 10:13:28;;;;;;;13.18;5.97;;;;;;;12.61;46.47;104092.94;5028839;28;20040;-60
2022/03/19 10:15:54;;;;;;;18.45;5.80;;;;;;;12.69;45.90;104083.66;5027856;28;20041;-61
2022/03/19 10:18:39;;;;;;;10.80;5.82;;;;;;;12.83;46.67;104085.63;5028610;28;20055;-61
2022/03/19 10:21:15;;;;;;;13.27;6.25;;;;;;;12.89;45.95;104078.41;5028376;28;20041;-61
2022/03/19 10:23:42;;;;;;;16.60;6.43;;;;;;;12.89;45.01;104073.72;5026882;28;20385;-61
2022/03/19 10:26:08;;;;;;;13.75;5.20;;;;;;;12.89;44.82;104072.81;5028724;28;20021;-62
2022/03/19 10:28:36;;;;;;;12.48;5.50;;;;;;;12.87;43.33;104059.09;5028583;28;20041;-64
2022/03/19 10:31:04;;;;;;;13.77;5.05;;;;;;;12.84;42.96;104067.81;5026966;28;20026;-62
2022/03/19 10:33:30;;;;;;;11.40;4.88;;;;;;;12.84;43.14;104051.09;5028752;28;20037;-62
2022/03/19 10:36:08;;;;;;;14.23;6.00;;;;;;;12.88;43.05;104062.75;5027602;28;20033;-60
2022/03/19 10:38:46;;;;;;;10.68;5.95;;;;;;;12.93;42.87;104051.88;5021550;28;20079;-61
2022/03/19 10:41:17;;;;;;;11.00;5.32;;;;;;;12.96;42.19;104051.50;5020637;28;20041;-61
2022/03/19 10:43:46;;;;;;;10.90;4.32;;;;;;;12.96;40.27;104049.56;5026395;28;20083;-60
2022/03/19 10:46:13;;;;;;;15.52;4.15;;;;;;;13.01;39.06;104047.09;5016824;28;20022;-63
2022/03/19 10:48:41;;;;;;;17.13;4.78;;;;;;;13.06;38.13;104032.56;5016809;28;20254;-62
2022/03/19 10:51:08;;;;;;;11.45;4.78;;;;;;;13.14;38.07;104037.19;5019902;28;20049;-62
2022/03/19 10:53:33;;;;;;;11.73;4.30;;;;;;;13.09;36.66;104028.53;5033206;28;20029;-61
2022/03/19 10:56:01;;;;;;;9.10;4.05;;;;;;;13.13;37.72;104027.97;5029073;28;20156;-61
2022/03/19 10:58:26;;;;;;;8.95;4.30;;;;;;;13.19;38.01;104012.34;5029536;28;20091;-62
2022/03/19 11:00:52;;;;;;;8.90;3.80;;;;;;;13.26;37.73;104017.00;5027088;28;20038;-61
2022/03/19 11:03:23;;;;;;;9.27;4.30;;;;;;;13.32;38.34;104015.34;5031367;28;20078;-62
2022/03/19 11:05:52;;;;;;;9.52;4.35;;;;;;;13.37;36.96;104018.44;5029497;28;20455;-63
2022/03/19 11:08:22;;;;;;;8.02;3.90;;;;;;;13.42;36.53;104007.56;5029004;28;20116;-60
2022/03/19 11:10:52;;;;;;;10.70;4.22;;;;;;;13.47;36.55;103995.78;5027272;28;20022;-64
2022/03/19 11:13:22;;;;;;;10.70;3.72;;;;;;;13.50;34.92;103989.84;5020824;28;20022;-62
2022/03/19 11:15:51;;;;;;;9.20;3.95;;;;;;;13.52;32.86;104007.25;5025454;28;20033;-62
2022/03/19 11:18:19;;;;;;;12.13;3.92;;;;;;;13.52;33.34;103990.50;5028044;28;20026;-60
2022/03/19 11:20:49;;;;;;;8.70;3.47;;;;;;;13.47;31.60;103993.88;5024958;28;20065;-61
2022/03/19 11:23:19;;;;;;;15.93;4.05;;;;;;;13.46;31.83;103992.16;5025510;28;20022;-61
2022/03/19 11:25:48;;;;;;;9.15;4.00;;;;;;;13.45;31.42;103987.63;5025612;28;20811;-60
2022/03/19 11:28:14;;;;;;;8.32;4.13;;;;;;;13.47;31.91;103970.69;5032198;28;20055;-62